Time,TemperatureF,DewpointF,PressureIn,WindDirection,WindDirectionDegrees,WindSpeedMPH,WindSpeedGustMPH,Humidity,HourlyPrecipIn,Conditions,Clouds,dailyrainin,SoftwareType,DateUTC
2013-11-14 00:22:00,31.0,24.0,30.45,SSW,195,0.0,0.0,76,0.00,,,0.00,,2013-11-14 06:22:00,
2013-11-14 00:42:00,31.0,24.0,30.45,SW,215,0.0,0.0,76,0.00,,,0.00,,2013-11-14 06:42:00,
2013-11-14 00:52:00,30.0,24.0,30.44,SSW,212,0.0,0.0,77,0.00,,,0.00,,2013-11-14 06:52:00,
2013-11-14 01:11:00,30.0,24.0,30.44,SSW,193,0.0,0.0,77,0.00,,,0.00,,2013-11-14 07:11:00,
2013-11-14 01:22:00,30.0,23.0,30.44,SW,217,0.0,0.0,76,0.00,,,0.00,,2013-11-14 07:22:00,
2013-11-14 01:42:00,30.0,24.0,30.44,SSW,200,0.0,0.0,77,0.00,,,0.00,,2013-11-14 07:42:00,
2013-11-14 01:53:00,30.0,24.0,30.44,SW,214,0.0,0.0,77,0.00,,,0.00,,2013-11-14 07:53:00,
2013-11-14 02:12:00,30.0,24.0,30.44,SSW,207,0.0,0.0,77,0.00,,,0.00,,2013-11-14 08:12:00,
2013-11-14 02:21:00,30.0,24.0,30.45,SSW,211,0.0,0.0,77,0.00,,,0.00,,2013-11-14 08:21:00,
2013-11-14 02:42:00,30.0,24.0,30.44,SSW,205,0.0,0.0,77,0.00,,,0.00,,2013-11-14 08:42:00,
2013-11-14 02:53:00,29.0,23.0,30.44,SSW,205,0.0,0.0,78,0.00,,,0.00,,2013-11-14 08:53:00,
2013-11-14 03:11:00,29.0,23.0,30.44,SW,215,0.0,0.0,78,0.00,,,0.00,,2013-11-14 09:11:00,
2013-11-14 03:22:00,29.0,23.0,30.43,SSW,204,0.0,0.0,78,0.00,,,0.00,,2013-11-14 09:22:00,
2013-11-14 03:43:00,29.0,23.0,30.43,SSW,194,0.0,0.0,78,0.00,,,0.00,,2013-11-14 09:43:00,
2013-11-14 03:52:00,29.0,23.0,30.42,SW,215,0.0,0.0,79,0.00,,,0.00,,2013-11-14 09:52:00,
2013-11-14 04:23:00,28.0,22.0,30.42,SSW,203,0.0,0.0,78,0.00,,,0.00,,2013-11-14 10:23:00,
2013-11-14 04:42:00,29.0,23.0,30.41,SSW,202,0.0,0.0,79,0.00,,,0.00,,2013-11-14 10:42:00,
2013-11-14 04:52:00,30.0,24.0,30.41,South,181,0.0,0.0,78,0.00,,,0.00,,2013-11-14 10:52:00,
2013-11-14 05:11:00,29.0,23.0,30.41,SSW,197,0.0,0.0,78,0.00,,,0.00,,2013-11-14 11:11:00,
2013-11-14 05:22:00,30.0,23.0,30.41,SW,216,0.0,0.0,76,0.00,,,0.00,,2013-11-14 11:22:00,
2013-11-14 05:42:00,30.0,23.0,30.41,SSW,195,0.0,0.0,76,0.00,,,0.00,,2013-11-14 11:42:00,
2013-11-14 05:52:00,30.0,23.0,30.40,South,186,0.0,0.0,75,0.00,,,0.00,,2013-11-14 11:52:00,
2013-11-14 06:12:00,30.0,23.0,30.40,SSW,200,0.0,0.0,75,0.00,,,0.00,,2013-11-14 12:12:00,
2013-11-14 06:21:00,31.0,24.0,30.40,South,179,0.0,0.0,74,0.00,,,0.00,,2013-11-14 12:21:00,
2013-11-14 06:42:00,31.0,24.0,30.39,SSW,192,0.0,0.0,75,0.00,,,0.00,,2013-11-14 12:42:00,
2013-11-14 06:52:00,30.0,23.0,30.39,South,188,0.0,3.0,75,0.00,,,0.00,,2013-11-14 12:52:00,
2013-11-14 07:22:00,30.0,23.0,30.38,South,190,0.0,0.0,76,0.00,,,0.00,,2013-11-14 13:22:00,
2013-11-14 07:42:00,31.0,24.0,30.38,South,182,0.0,0.0,76,0.00,,,0.00,,2013-11-14 13:42:00,
2013-11-14 07:52:00,32.0,25.0,30.39,SSW,192,0.0,5.0,76,0.00,,,0.00,,2013-11-14 13:52:00,
2013-11-14 08:11:00,33.0,26.0,30.39,SSW,194,0.0,0.0,76,0.00,,,0.00,,2013-11-14 14:11:00,
2013-11-14 08:22:00,34.0,27.0,30.40,South,180,0.0,5.0,74,0.00,,,0.00,,2013-11-14 14:22:00,
2013-11-14 08:52:00,36.0,27.0,30.40,South,179,8.0,12.0,69,0.00,,,0.00,,2013-11-14 14:52:00,
2013-11-14 09:11:00,37.0,27.0,30.39,SSW,202,9.0,12.0,68,0.00,,,0.00,,2013-11-14 15:11:00,
2013-11-14 09:22:00,38.0,28.0,30.39,SSE,165,6.0,13.0,66,0.00,,,0.00,,2013-11-14 15:22:00,
2013-11-14 09:43:00,40.0,29.0,30.39,South,191,7.0,13.0,65,0.00,,,0.00,,2013-11-14 15:43:00,
2013-11-14 09:53:00,42.0,29.0,30.38,SSW,200,8.0,15.0,59,0.00,,,0.00,,2013-11-14 15:53:00,
2013-11-14 10:13:00,43.0,28.0,30.39,SW,222,9.0,17.0,55,0.01,,,0.01,,2013-11-14 16:13:00,
2013-11-14 10:23:00,44.0,28.0,30.38,SSW,207,9.0,17.0,52,0.01,,,0.01,,2013-11-14 16:23:00,
2013-11-14 10:42:00,45.0,28.0,30.38,SSW,200,9.0,15.0,52,0.01,,,0.01,,2013-11-14 16:42:00,
2013-11-14 10:52:00,46.0,27.0,30.37,SW,219,12.0,14.0,47,0.01,,,0.01,,2013-11-14 16:52:00,
2013-11-14 11:13:00,48.0,27.0,30.36,SSW,197,9.0,19.0,43,0.00,,,0.01,,2013-11-14 17:13:00,
2013-11-14 11:22:00,48.0,24.0,30.35,SSW,208,12.0,19.0,39,0.00,,,0.01,,2013-11-14 17:22:00,
2013-11-14 11:42:00,49.0,25.0,30.34,SW,223,11.0,18.0,38,0.00,,,0.01,,2013-11-14 17:42:00,
2013-11-14 11:52:00,50.0,24.0,30.32,South,182,11.0,18.0,36,0.00,,,0.01,,2013-11-14 17:52:00,
2013-11-14 12:12:00,51.0,24.0,30.30,SSW,197,9.0,21.0,35,0.00,,,0.01,,2013-11-14 18:12:00,
2013-11-14 12:21:00,51.0,26.0,30.29,SSW,203,11.0,19.0,37,0.00,,,0.01,,2013-11-14 18:21:00,
2013-11-14 12:42:00,52.0,25.0,30.28,SSW,206,1.0,17.0,35,0.00,,,0.01,,2013-11-14 18:42:00,
2013-11-14 12:52:00,52.0,24.0,30.28,SW,226,9.0,14.0,33,0.00,,,0.01,,2013-11-14 18:52:00,
2013-11-14 13:11:00,53.0,24.0,30.27,SSW,200,11.0,18.0,32,0.00,,,0.01,,2013-11-14 19:11:00,
2013-11-14 13:21:00,53.0,23.0,30.26,South,169,9.0,13.0,31,0.00,,,0.01,,2013-11-14 19:21:00,
2013-11-14 13:42:00,54.0,25.0,30.25,SSE,166,7.0,17.0,32,0.00,,,0.01,,2013-11-14 19:42:00,
2013-11-14 13:52:00,54.0,23.0,30.26,SSE,160,10.0,14.0,30,0.00,,,0.01,,2013-11-14 19:52:00,
2013-11-14 14:12:00,54.0,24.0,30.23,South,170,0.0,13.0,31,0.00,,,0.01,,2013-11-14 20:12:00,
2013-11-14 14:22:00,54.0,25.0,30.24,South,191,8.0,14.0,32,0.00,,,0.01,,2013-11-14 20:22:00,
2013-11-14 14:42:00,54.0,23.0,30.14,South,185,5.0,11.0,30,0.00,,,0.01,,2013-11-14 20:42:00,
2013-11-14 14:52:00,55.0,23.0,30.14,South,175,10.0,13.0,29,0.00,,,0.01,,2013-11-14 20:52:00,
2013-11-14 15:11:00,54.0,23.0,30.20,South,181,5.0,14.0,30,0.00,,,0.01,,2013-11-14 21:11:00,
2013-11-14 15:22:00,54.0,23.0,30.20,South,188,8.0,13.0,30,0.00,,,0.01,,2013-11-14 21:22:00,
2013-11-14 15:43:00,53.0,24.0,30.18,South,173,8.0,13.0,32,0.00,,,0.01,,2013-11-14 21:43:00,
2013-11-14 15:53:00,53.0,22.0,30.17,South,175,9.0,13.0,30,0.00,,,0.01,,2013-11-14 21:53:00,
2013-11-14 16:13:00,53.0,24.0,30.17,South,190,9.0,13.0,32,0.00,,,0.01,,2013-11-14 22:13:00,
2013-11-14 16:23:00,51.0,26.0,30.21,South,184,0.0,7.0,38,0.00,,,0.01,,2013-11-14 22:23:00,
2013-11-14 16:43:00,50.0,26.0,30.21,SSW,194,0.0,0.0,39,0.00,,,0.01,,2013-11-14 22:43:00,
2013-11-14 16:53:00,48.0,27.0,30.22,South,191,0.0,0.0,44,0.00,,,0.01,,2013-11-14 22:53:00,
2013-11-14 17:22:00,47.0,26.0,30.22,South,173,0.0,0.0,44,0.00,,,0.01,,2013-11-14 23:22:00,
2013-11-14 17:43:00,46.0,26.0,30.22,SSW,196,0.0,0.0,45,0.00,,,0.01,,2013-11-14 23:43:00,
2013-11-14 17:52:00,47.0,26.0,30.21,SSE,168,3.0,11.0,43,0.00,,,0.01,,2013-11-14 23:52:00,
2013-11-14 18:11:00,47.0,25.0,30.22,South,180,1.0,10.0,41,0.00,,,0.01,,2013-11-15 00:11:00,
2013-11-14 18:21:00,47.0,25.0,30.22,SSW,194,0.0,9.0,42,0.00,,,0.01,,2013-11-15 00:21:00,
2013-11-14 18:42:00,46.0,25.0,30.21,South,173,5.0,10.0,43,0.00,,,0.01,,2013-11-15 00:42:00,
2013-11-14 18:52:00,46.0,25.0,30.20,South,184,0.0,0.0,43,0.00,,,0.01,,2013-11-15 00:52:00,
2013-11-14 19:22:00,46.0,24.0,30.20,SSW,207,0.0,8.0,42,0.00,,,0.01,,2013-11-15 01:22:00,
2013-11-14 19:42:00,46.0,24.0,30.20,SSE,165,0.0,8.0,42,0.00,,,0.01,,2013-11-15 01:42:00,
2013-11-14 19:52:00,46.0,24.0,30.19,SE,138,4.0,11.0,42,0.00,,,0.01,,2013-11-15 01:52:00,
2013-11-14 20:12:00,46.0,25.0,30.19,SSE,151,0.0,7.0,43,0.00,,,0.01,,2013-11-15 02:12:00,
2013-11-14 20:22:00,46.0,25.0,30.19,SSW,196,0.0,13.0,44,0.00,,,0.01,,2013-11-15 02:22:00,
2013-11-14 20:42:00,46.0,25.0,30.19,South,182,4.0,10.0,44,0.00,,,0.01,,2013-11-15 02:42:00,
2013-11-14 20:52:00,45.0,25.0,30.19,South,175,5.0,11.0,45,0.00,,,0.01,,2013-11-15 02:52:00,
2013-11-14 21:12:00,45.0,25.0,30.19,South,172,4.0,7.0,45,0.00,,,0.01,,2013-11-15 03:12:00,
2013-11-14 21:22:00,45.0,25.0,30.19,South,186,1.0,6.0,46,0.00,,,0.01,,2013-11-15 03:22:00,
2013-11-14 21:44:00,45.0,27.0,30.19,SSW,200,0.0,7.0,48,0.00,,,0.01,,2013-11-15 03:44:00,
2013-11-14 21:54:00,43.0,26.0,30.20,SSW,207,0.0,0.0,51,0.00,,,0.01,,2013-11-15 03:54:00,
2013-11-14 22:14:00,43.0,26.0,30.20,SSW,198,0.0,0.0,51,0.00,,,0.01,,2013-11-15 04:14:00,
2013-11-14 22:24:00,42.0,27.0,30.19,SSW,197,0.0,0.0,54,0.00,,,0.01,,2013-11-15 04:24:00,
2013-11-14 22:42:00,42.0,27.0,30.19,SSW,201,0.0,0.0,56,0.00,,,0.01,,2013-11-15 04:42:00,
2013-11-14 22:53:00,41.0,27.0,30.19,SSW,205,0.0,0.0,58,0.00,,,0.01,,2013-11-15 04:53:00,
2013-11-14 23:13:00,40.0,27.0,30.19,SSW,205,0.0,0.0,59,0.00,,,0.01,,2013-11-15 05:13:00,
2013-11-14 23:22:00,41.0,28.0,30.18,SSW,204,0.0,0.0,59,0.00,,,0.01,,2013-11-15 05:22:00,
2013-11-14 23:43:00,40.0,27.0,30.19,SSW,196,0.0,0.0,60,0.00,,,0.01,,2013-11-15 05:43:00,
2013-11-14 23:53:00,42.0,27.0,30.19,SSW,195,0.0,0.0,55,0.00,,,0.01,,2013-11-15 05:53:00,